Destinations Rotterdam The Hague Airport

Rotterdam The Hague Airport (EHRD / RTM)

Flights to Rotterdam The Hague Airport

Flight number From ETE Dispatch
SPY-2220 EGFF Cardiff International Airport 01:40
SPY-2410 EGPH Edinburgh Airport 01:35

Flights from Rotterdam The Hague Airport

Flight number To ETE Dispatch
SPY-2221 EGFF Cardiff International Airport 01:40
SPY-2411 EGPH Edinburgh Airport 01:35
About

Rotterdam The Hague Airport facts

Rotterdam The Hague Airport is located in Rotterdam at an elevation of -4.6 meters or -15 feet.

Currently, Speedy Airlines serves 4 flights to and from Rotterdam The Hague Airport.

Detailed airport info

Route map

Weather

Current weather

METAR

METAR

Metar data retrieved Sunday, 21 July 2024 at 18:25 UTC

EHRD 211755Z AUTO 28007KT 250V350 9999 NSC 20/16 Q1011 TEMPO BKN014
Wind Temperature
7 kt 20c